Time;durP1;ratioP1;P1;durP2;ratioP2;P2;SDS_P1;SDS_P2;PMS_P1;PMS_P2;Temp;Humidity;BMP_temperature;BMP_pressure;BME280_temperature;BME280_humidity;BME280_pressure;Samples;Min_cycle;Max_cycle;Signal;HPM_P1;HPM_P2
2022/05/16 00:01:29;;;;;;;24.15;6.70;;;;;;;9.77;100.00;101985.06;4847361;29;20503;-79
2022/05/16 00:03:55;;;;;;;25.48;7.43;;;;;;;9.84;100.00;101975.31;4867193;29;20165;-79
2022/05/16 00:06:20;;;;;;;25.80;7.47;;;;;;;9.96;100.00;101970.44;4862752;29;20057;-79
2022/05/16 00:08:45;;;;;;;24.05;6.45;;;;;;;10.26;100.00;101993.19;4862136;29;20066;-79
2022/05/16 00:11:11;;;;;;;29.15;7.18;;;;;;;10.19;100.00;101978.72;4846428;29;20025;-79
2022/05/16 00:13:36;;;;;;;29.00;7.43;;;;;;;10.42;100.00;102007.66;4820797;29;20343;-79
2022/05/16 00:16:01;;;;;;;26.42;7.35;;;;;;;10.18;100.00;101971.66;4879966;29;20572;-79
2022/05/16 00:18:27;;;;;;;24.02;7.18;;;;;;;10.31;100.00;101995.41;4864665;29;20463;-79
2022/05/16 00:20:52;;;;;;;24.48;7.43;;;;;;;10.33;100.00;102005.00;4862381;29;20035;-79
2022/05/16 00:23:18;;;;;;;24.40;7.20;;;;;;;10.28;100.00;102009.19;4852215;29;20057;-79
2022/05/16 00:25:43;;;;;;;29.38;7.30;;;;;;;10.07;100.00;101966.63;4834018;29;20056;-78
2022/05/16 00:28:09;;;;;;;24.65;7.05;;;;;;;10.22;100.00;102007.97;4877922;29;20021;-79
2022/05/16 00:30:34;;;;;;;18.67;5.55;;;;;;;9.92;100.00;102017.50;4864754;29;20029;-79
2022/05/16 00:33:00;;;;;;;22.38;6.65;;;;;;;9.72;100.00;102022.34;4843821;29;20037;-79
2022/05/16 00:35:26;;;;;;;19.52;6.50;;;;;;;9.36;100.00;102001.03;4877078;29;20033;-79
2022/05/16 00:37:52;;;;;;;29.15;7.07;;;;;;;8.25;100.00;101852.50;4860068;29;20064;-79
2022/05/16 00:40:19;;;;;;;26.42;6.82;;;;;;;9.32;100.00;102036.47;4848501;29;20064;-79
2022/05/16 00:42:44;;;;;;;29.48;7.72;;;;;;;8.79;100.00;101933.66;4862258;29;20026;-79
2022/05/16 00:45:13;;;;;;;20.98;6.82;;;;;;;9.10;100.00;102011.81;4846953;29;20033;-79
2022/05/16 00:47:38;;;;;;;21.17;6.82;;;;;;;9.13;100.00;102041.06;4874585;29;20044;-78
2022/05/16 00:50:05;;;;;;;22.40;6.82;;;;;;;9.07;100.00;102040.84;4880571;29;20024;-79
2022/05/16 00:52:35;;;;;;;17.55;6.43;;;;;;;9.04;100.00;102033.97;4864500;29;20069;-79
2022/05/16 00:55:11;;;;;;;24.40;7.53;;;;;;;9.15;100.00;102041.75;4880710;29;20032;-79
2022/05/16 00:57:41;;;;;;;25.65;6.95;;;;;;;9.05;100.00;102018.69;4860988;29;20029;-78
2022/05/16 01:00:26;;;;;;;21.58;6.32;;;;;;;9.18;100.00;102043.28;4861757;29;20427;-79
2022/05/16 01:05:47;;;;;;;;;;;;;;;9.30;100.00;102046.50;4881366;29;20087;-79
2022/05/16 01:08:16;;;;;;;21.35;6.38;;;;;;;9.18;100.00;102054.03;4871969;29;19920;-79
2022/05/16 01:10:41;;;;;;;16.88;6.70;;;;;;;8.84;100.00;102014.56;4866618;29;20120;-78
2022/05/16 01:13:07;;;;;;;18.58;5.95;;;;;;;9.06;100.00;102061.47;4861197;29;20109;-79
2022/05/16 01:15:37;;;;;;;19.80;6.15;;;;;;;9.02;100.00;102060.13;4858971;29;20185;-79
2022/05/16 01:18:05;;;;;;;18.08;6.22;;;;;;;8.90;100.00;102037.22;4861303;29;20021;-79
2022/05/16 01:20:48;;;;;;;21.40;6.90;;;;;;;9.06;100.00;102057.97;4864401;29;20136;-79
2022/05/16 01:23:16;;;;;;;15.93;5.70;;;;;;;8.92;100.00;102036.06;4865888;29;20513;-79
2022/05/16 01:25:42;;;;;;;21.88;6.03;;;;;;;9.01;100.00;102054.94;4869063;29;20029;-79
2022/05/16 01:28:07;;;;;;;13.43;5.60;;;;;;;8.98;100.00;102055.25;4875471;29;20399;-79
2022/05/16 01:30:46;;;;;;;24.38;7.93;;;;;;;8.81;100.00;102030.97;4864407;29;20025;-79
2022/05/16 01:33:11;;;;;;;30.02;8.20;;;;;;;8.92;100.00;102054.84;4878042;29;20504;-79
2022/05/16 01:35:37;;;;;;;21.98;8.15;;;;;;;8.69;100.00;102008.06;4848680;29;20045;-79
2022/05/16 01:40:48;;;;;;;19.40;6.60;;;;;;;8.83;100.00;102039.69;4860572;29;20186;-79
2022/05/16 01:43:16;;;;;;;17.17;6.63;;;;;;;8.84;100.00;102052.13;4846163;29;20041;-79
2022/05/16 01:45:43;;;;;;;19.58;6.53;;;;;;;8.85;100.00;102051.13;4878778;29;20028;-79
2022/05/16 01:48:10;;;;;;;20.65;7.97;;;;;;;8.75;100.00;102036.13;4863560;29;20037;-79
2022/05/16 01:50:36;;;;;;;24.88;7.07;;;;;;;8.75;100.00;102039.66;4882254;29;20036;-79
2022/05/16 01:53:02;;;;;;;21.27;6.63;;;;;;;8.70;100.00;102040.09;4863573;29;20085;-78
2022/05/16 01:55:28;;;;;;;20.17;7.07;;;;;;;8.63;100.00;102040.88;4847833;29;20472;-79
2022/05/16 01:57:53;;;;;;;21.67;6.88;;;;;;;8.70;100.00;102058.03;4879014;29;20204;-79
2022/05/16 02:00:19;;;;;;;19.13;6.65;;;;;;;8.61;100.00;102049.09;4847972;29;20043;-79
2022/05/16 02:02:45;;;;;;;17.80;6.80;;;;;;;8.40;100.00;102035.16;4877742;29;20371;-79
2022/05/16 02:05:14;;;;;;;18.40;7.50;;;;;;;8.55;100.00;102065.00;4848611;29;20047;-79
2022/05/16 02:07:40;;;;;;;20.75;6.90;;;;;;;8.48;100.00;102059.41;4863192;29;20045;-79
2022/05/16 02:10:07;;;;;;;17.15;6.22;;;;;;;8.42;100.00;102062.69;4880649;29;20058;-78
2022/05/16 02:12:34;;;;;;;15.93;6.50;;;;;;;8.42;100.00;102066.22;4878524;29;20040;-80
2022/05/16 02:14:59;;;;;;;17.25;6.55;;;;;;;8.23;100.00;102053.75;4863757;29;20033;-79
2022/05/16 02:17:25;;;;;;;19.73;7.10;;;;;;;8.38;100.00;102077.41;4867535;29;20033;-79
2022/05/16 02:19:50;;;;;;;21.38;7.43;;;;;;;8.35;100.00;102080.38;4863907;29;20041;-79
2022/05/16 02:24:59;;;;;;;18.52;6.93;;;;;;;8.37;100.00;102075.66;4879539;29;20071;-78
2022/05/16 02:27:24;;;;;;;29.08;8.25;;;;;;;8.30;100.00;102056.66;4862420;29;20029;-78
2022/05/16 02:29:50;;;;;;;22.67;7.85;;;;;;;8.39;100.00;102055.78;4863186;29;20142;-78
2022/05/16 02:32:15;;;;;;;22.65;7.93;;;;;;;8.53;100.00;102075.84;4863422;29;20029;-79
2022/05/16 02:34:42;;;;;;;25.02;7.57;;;;;;;8.42;100.00;102057.31;4864284;29;20044;-78
2022/05/16 02:37:07;;;;;;;23.17;7.80;;;;;;;8.60;100.00;102081.44;4881373;29;20492;-79
2022/05/16 02:39:49;;;;;;;23.63;7.70;;;;;;;8.25;100.00;102016.09;4878431;29;20128;-79
2022/05/16 02:42:14;;;;;;;21.77;8.00;;;;;;;8.62;100.00;102069.56;4863530;29;20368;-79
2022/05/16 02:44:43;;;;;;;25.30;8.15;;;;;;;8.82;100.00;102089.00;4878839;29;20120;-79
2022/05/16 02:47:14;;;;;;;27.58;9.23;;;;;;;8.80;100.00;102058.78;4877983;29;20037;-78
2022/05/16 02:49:39;;;;;;;27.23;8.20;;;;;;;8.93;100.00;102072.63;4878960;29;20032;-79
2022/05/16 02:52:05;;;;;;;22.08;8.43;;;;;;;8.96;100.00;102057.22;4880996;29;20409;-78
2022/05/16 02:54:30;;;;;;;22.30;8.48;;;;;;;9.11;100.00;102077.16;4882072;29;20033;-78
2022/05/16 02:56:57;;;;;;;22.42;8.27;;;;;;;9.25;100.00;102070.34;4865325;29;20138;-79
2022/05/16 02:59:25;;;;;;;28.02;8.23;;;;;;;9.25;100.00;102071.16;4867436;29;20029;-79
2022/05/16 03:01:50;;;;;;;18.92;7.43;;;;;;;9.25;100.00;102078.41;4878657;29;20032;-78
2022/05/16 03:04:16;;;;;;;23.58;8.35;;;;;;;8.98;100.00;102023.88;4847824;29;20078;-79
2022/05/16 03:06:42;;;;;;;21.05;8.27;;;;;;;9.35;100.00;102069.22;4832622;29;20033;-79
2022/05/16 03:09:08;;;;;;;22.67;7.32;;;;;;;9.28;100.00;102049.38;4833339;29;20121;-79
2022/05/16 03:11:33;;;;;;;20.90;7.30;;;;;;;9.45;100.00;102071.78;4863932;29;20067;-78
2022/05/16 03:13:59;;;;;;;27.10;8.77;;;;;;;9.48;100.00;102071.47;4864652;29;20033;-79
2022/05/16 03:16:25;;;;;;;20.77;8.10;;;;;;;9.34;100.00;102035.31;4871186;29;20028;-79
2022/05/16 03:18:51;;;;;;;19.48;8.52;;;;;;;9.59;100.00;102071.16;4883821;29;20025;-78
2022/05/16 03:21:19;;;;;;;27.60;8.68;;;;;;;9.65;100.00;102069.69;4866003;29;20096;-79
2022/05/16 03:23:45;;;;;;;24.15;8.75;;;;;;;9.75;100.00;102080.31;4871276;29;20380;-79
2022/05/16 03:26:10;;;;;;;23.85;8.40;;;;;;;9.72;100.00;102086.84;4865525;29;20037;-79
2022/05/16 03:28:35;;;;;;;28.27;9.45;;;;;;;9.66;100.00;102114.34;4880373;29;20098;-79
2022/05/16 03:31:01;;;;;;;29.40;11.48;;;;;;;9.68;100.00;102115.06;4865474;29;20052;-79
2022/05/16 03:33:27;;;;;;;27.23;10.23;;;;;;;9.88;100.00;102099.50;4864610;29;20044;-78
2022/05/16 03:35:55;;;;;;;41.17;11.77;;;;;;;9.90;100.00;102110.94;4865849;29;20132;-78
2022/05/16 03:41:14;;;;;;;45.03;13.43;;;;;;;10.01;100.00;102096.34;4882364;29;20475;-78
2022/05/16 03:43:41;;;;;;;37.72;13.27;;;;;;;9.97;100.00;102111.16;4865923;29;20029;-78
2022/05/16 03:46:08;;;;;;;42.17;13.80;;;;;;;10.02;100.00;102114.16;4869353;29;20341;-79
2022/05/16 03:48:34;;;;;;;40.78;13.95;;;;;;;9.86;100.00;102094.28;4876118;29;20477;-79
2022/05/16 03:51:01;;;;;;;36.83;13.35;;;;;;;9.88;100.00;102075.31;4896054;29;20184;-79
2022/05/16 03:53:26;;;;;;;36.13;12.77;;;;;;;9.83;100.00;102051.63;4875447;29;20045;-79
2022/05/16 03:55:52;;;;;;;31.77;12.93;;;;;;;9.89;100.00;102067.06;4877768;29;20033;-78
2022/05/16 03:58:17;;;;;;;38.70;13.45;;;;;;;10.04;100.00;102101.41;4864682;29;20037;-78
2022/05/16 04:00:43;;;;;;;35.70;13.23;;;;;;;10.07;100.00;102101.94;4871180;29;20127;-79
2022/05/16 04:03:09;;;;;;;37.47;13.13;;;;;;;9.96;100.00;102086.06;4845525;29;20037;-79
2022/05/16 04:05:35;;;;;;;33.13;12.55;;;;;;;9.99;100.00;102103.72;4846298;29;20029;-79
2022/05/16 04:08:01;;;;;;;36.47;14.35;;;;;;;9.99;100.00;102107.25;4846979;29;20033;-79
2022/05/16 04:10:26;;;;;;;30.35;13.25;;;;;;;10.03;100.00;102099.72;4863210;29;20113;-80
2022/05/16 04:12:52;;;;;;;35.60;14.10;;;;;;;9.91;100.00;102106.41;4880400;29;20396;-77
2022/05/16 04:15:18;;;;;;;34.35;12.73;;;;;;;9.86;100.00;102110.41;4882769;29;20088;-79
2022/05/16 04:17:43;;;;;;;34.78;13.60;;;;;;;9.97;100.00;102095.84;4882839;29;20037;-78
2022/05/16 04:20:10;;;;;;;36.17;13.55;;;;;;;9.91;100.00;102103.72;4881276;29;20093;-78
2022/05/16 04:22:36;;;;;;;44.30;14.98;;;;;;;9.94;100.00;102098.84;4846821;29;20032;-78
2022/05/16 04:25:03;;;;;;;41.38;15.57;;;;;;;9.88;100.00;102105.72;4864029;29;20099;-78
2022/05/16 04:27:28;;;;;;;33.17;12.38;;;;;;;9.83;100.00;102109.88;4875802;29;20032;-78
2022/05/16 04:29:53;;;;;;;17.23;10.00;;;;;;;9.67;100.00;102109.81;4875699;29;20397;-78
2022/05/16 04:32:19;;;;;;;38.45;11.45;;;;;;;9.35;100.00;102069.22;4866089;29;20072;-80
2022/05/16 04:34:44;;;;;;;24.40;11.00;;;;;;;9.65;100.00;102110.00;4867677;29;20047;-79
2022/05/16 04:37:10;;;;;;;30.65;10.02;;;;;;;9.59;100.00;102106.09;4889898;29;20057;-80
2022/05/16 04:39:35;;;;;;;54.88;10.25;;;;;;;9.25;100.00;102068.50;4856218;29;20076;-79
2022/05/16 04:44:45;;;;;;;17.43;8.63;;;;;;;9.24;100.00;102104.41;4869828;29;20109;-79
2022/05/16 04:47:10;;;;;;;19.50;9.35;;;;;;;9.29;100.00;102110.13;4879343;29;20276;-79
2022/05/16 04:49:36;;;;;;;13.68;8.32;;;;;;;9.31;100.00;102118.88;4868244;29;20033;-78
2022/05/16 04:52:02;;;;;;;14.00;8.07;;;;;;;9.48;100.00;102118.97;4878850;29;20052;-79
2022/05/16 04:54:35;;;;;;;13.80;8.40;;;;;;;9.51;100.00;102118.66;4864477;29;20040;-79
2022/05/16 04:57:02;;;;;;;16.40;9.13;;;;;;;9.97;100.00;102111.16;4858735;29;20029;-81
2022/05/16 04:59:28;;;;;;;12.57;8.35;;;;;;;10.45;100.00;102088.91;4875324;29;20073;-79
2022/05/16 05:01:53;;;;;;;14.93;8.20;;;;;;;11.16;100.00;102125.06;4850568;29;20041;-78
2022/05/16 05:04:19;;;;;;;11.90;7.47;;;;;;;12.12;100.00;102120.53;4862457;29;20052;-80
2022/05/16 05:06:44;;;;;;;13.40;7.60;;;;;;;12.64;100.00;102123.41;4849827;29;20033;-80
2022/05/16 05:09:10;;;;;;;11.07;7.00;;;;;;;12.27;100.00;102129.56;4869364;29;20068;-80
2022/05/16 05:14:34;;;;;;;12.68;6.90;;;;;;;12.05;100.00;102125.81;4867250;29;20051;-80
2022/05/16 05:17:05;;;;;;;11.07;6.50;;;;;;;13.29;100.00;102132.00;4852966;29;20048;-80
2022/05/16 05:19:32;;;;;;;8.25;5.90;;;;;;;13.25;100.00;102130.69;4860931;29;20371;-80
2022/05/16 05:21:58;;;;;;;9.35;6.10;;;;;;;13.42;100.00;102139.47;4876316;29;20032;-79
2022/05/16 05:24:24;;;;;;;9.32;5.25;;;;;;;13.59;100.00;102131.00;4851727;29;20056;-80
2022/05/16 05:26:49;;;;;;;6.68;5.05;;;;;;;13.93;100.00;102120.59;4852361;29;20048;-80
2022/05/16 05:29:16;;;;;;;7.45;4.85;;;;;;;13.20;100.00;102112.28;4850361;29;20029;-80
2022/05/16 05:31:43;;;;;;;8.27;4.70;;;;;;;13.43;100.00;102133.88;4881798;29;20073;-81
2022/05/16 05:34:10;;;;;;;9.38;4.28;;;;;;;13.23;100.00;102122.72;4881762;29;20032;-79
2022/05/16 05:36:36;;;;;;;8.98;3.20;;;;;;;12.52;100.00;102134.84;4870833;29;20033;-80
2022/05/16 05:39:03;;;;;;;6.63;2.95;;;;;;;12.30;100.00;102112.19;4851776;29;20048;-80
2022/05/16 05:41:28;;;;;;;4.85;2.20;;;;;;;12.30;100.00;102139.19;4852346;29;20036;-82
2022/05/16 05:43:54;;;;;;;6.45;2.63;;;;;;;12.15;100.00;102137.25;4887600;29;20033;-81
2022/05/16 05:46:19;;;;;;;5.30;2.28;;;;;;;12.07;100.00;102117.56;4867735;29;20025;-81
2022/05/16 05:48:45;;;;;;;4.57;2.30;;;;;;;11.71;100.00;102067.63;4889183;29;20044;-81
2022/05/16 05:51:12;;;;;;;5.60;2.30;;;;;;;11.96;100.00;102146.59;4888154;29;20085;-81
2022/05/16 05:53:38;;;;;;;6.60;2.45;;;;;;;12.00;100.00;102139.00;4879410;29;20024;-81
2022/05/16 05:56:06;;;;;;;4.68;2.10;;;;;;;12.19;100.00;102141.25;4894695;29;20124;-81
2022/05/16 05:58:36;;;;;;;7.53;2.33;;;;;;;12.00;100.00;102144.38;4886163;29;20060;-80
2022/05/16 06:01:02;;;;;;;6.10;1.80;;;;;;;12.28;100.00;102136.63;4871131;29;20031;-79
2022/05/16 06:03:28;;;;;;;6.47;2.08;;;;;;;12.48;100.00;102139.72;4872140;29;20044;-80
2022/05/16 06:05:53;;;;;;;4.78;1.67;;;;;;;12.39;100.00;102136.25;4879001;29;20033;-80
2022/05/16 06:08:19;;;;;;;3.83;1.90;;;;;;;12.17;100.00;102085.78;4879383;29;20088;-80
2022/05/16 06:10:45;;;;;;;2.70;1.67;;;;;;;12.60;100.00;102146.41;4869900;29;20396;-81
2022/05/16 06:13:10;;;;;;;5.07;1.60;;;;;;;12.69;100.00;102134.53;4869392;29;20025;-81
2022/05/16 06:15:36;;;;;;;5.28;1.40;;;;;;;12.12;100.00;102090.84;4878502;29;20052;-80
2022/05/16 06:18:02;;;;;;;4.32;1.33;;;;;;;12.32;100.00;102147.94;4874083;29;20025;-80
2022/05/16 06:20:27;;;;;;;4.25;1.40;;;;;;;12.41;100.00;102131.50;4875210;29;20063;-82
2022/05/16 06:22:54;;;;;;;3.70;1.52;;;;;;;12.23;100.00;102149.84;4851661;29;20056;-78
2022/05/16 06:25:39;;;;;;;3.28;1.55;;;;;;;12.17;100.00;102137.88;4855695;29;20037;-82
2022/05/16 06:28:20;;;;;;;4.78;1.48;;;;;;;12.24;100.00;102135.31;4872928;29;20364;-80
2022/05/16 06:30:47;;;;;;;3.80;1.30;;;;;;;12.40;100.00;102146.03;4879806;29;20052;-80
2022/05/16 06:33:15;;;;;;;3.33;1.30;;;;;;;12.87;100.00;102154.97;4867841;29;20033;-80
2022/05/16 06:35:41;;;;;;;4.53;1.30;;;;;;;13.00;100.00;102159.78;4871411;29;20045;-81
2022/05/16 06:38:10;;;;;;;2.53;0.93;;;;;;;12.69;100.00;102148.03;4886048;29;20029;-80
2022/05/16 06:40:38;;;;;;;2.75;1.10;;;;;;;12.62;100.00;102149.78;4882797;29;20423;-80
2022/05/16 06:43:04;;;;;;;1.85;1.08;;;;;;;12.57;100.00;102143.22;4883862;29;20020;-81
2022/05/16 06:45:29;;;;;;;2.08;1.02;;;;;;;12.67;100.00;102152.75;4893097;29;20044;-80
2022/05/16 06:47:54;;;;;;;1.77;0.82;;;;;;;12.89;100.00;102155.66;4860135;29;20478;-80
2022/05/16 06:50:20;;;;;;;3.92;0.80;;;;;;;12.91;100.00;102142.78;4881474;29;20439;-80
2022/05/16 06:52:45;;;;;;;2.65;0.88;;;;;;;13.08;100.00;102138.94;4883315;29;20041;-80
2022/05/16 06:55:11;;;;;;;2.00;0.77;;;;;;;12.72;99.68;102109.03;4878277;29;20044;-80
2022/05/16 06:57:37;;;;;;;2.70;0.70;;;;;;;13.00;95.27;102146.25;4867748;29;20120;-79
2022/05/16 07:00:06;;;;;;;1.48;0.50;;;;;;;13.23;95.51;102147.06;4882186;29;20085;-81
2022/05/16 07:02:32;;;;;;;2.63;0.73;;;;;;;13.45;94.57;102131.84;4882761;29;20451;-80
2022/05/16 07:04:58;;;;;;;1.38;0.57;;;;;;;13.59;91.52;102122.03;4883949;29;20854;-80
2022/05/16 07:07:23;;;;;;;1.33;0.60;;;;;;;13.56;88.25;102139.47;4870041;29;20100;-81
2022/05/16 07:09:48;;;;;;;1.85;0.60;;;;;;;12.90;83.83;102084.38;4885729;29;20127;-80
2022/05/16 07:12:14;;;;;;;1.85;0.60;;;;;;;13.28;84.83;102147.38;4852387;29;20065;-80
2022/05/16 07:14:39;;;;;;;2.03;0.70;;;;;;;13.69;83.67;102146.09;4869179;29;20159;-80
2022/05/16 07:17:06;;;;;;;1.33;0.52;;;;;;;13.78;81.16;102151.22;4851940;29;20094;-80
2022/05/16 07:19:34;;;;;;;1.38;0.52;;;;;;;14.02;81.41;102158.19;4870481;29;20111;-80
2022/05/16 07:22:02;;;;;;;0.95;0.50;;;;;;;13.36;77.41;102078.88;4871751;29;20036;-80
2022/05/16 07:24:28;;;;;;;1.20;0.40;;;;;;;13.59;77.67;102120.16;4874209;29;20061;-81
2022/05/16 07:29:37;;;;;;;0.98;0.40;;;;;;;13.90;69.14;102148.88;4874241;29;20096;-81
2022/05/16 07:32:03;;;;;;;2.35;0.43;;;;;;;14.16;67.18;102169.19;4862806;29;20025;-81
2022/05/16 07:34:28;;;;;;;3.08;0.70;;;;;;;13.95;66.36;102132.09;4852584;29;20033;-80
2022/05/16 07:36:54;;;;;;;1.83;0.40;;;;;;;14.28;64.95;102171.22;4853065;29;20032;-80
2022/05/16 07:39:19;;;;;;;3.03;0.40;;;;;;;14.49;64.41;102166.88;4871165;29;20039;-81
2022/05/16 07:41:45;;;;;;;1.73;0.40;;;;;;;14.59;63.78;102174.72;4874271;29;20032;-80
2022/05/16 07:44:11;;;;;;;1.50;0.47;;;;;;;14.69;64.56;102158.97;4868997;29;20040;-80
2022/05/16 07:46:36;;;;;;;1.08;0.47;;;;;;;15.07;63.13;102164.97;4872998;29;20039;-81
2022/05/16 07:49:01;;;;;;;1.00;0.40;;;;;;;14.82;62.15;102169.13;4877719;29;20085;-81
2022/05/16 07:51:27;;;;;;;1.05;0.45;;;;;;;14.99;61.35;102151.53;4885800;29;20096;-80
2022/05/16 07:53:52;;;;;;;0.63;0.40;;;;;;;14.85;61.02;102147.06;4894950;29;20028;-81
2022/05/16 07:56:18;;;;;;;1.92;0.35;;;;;;;14.96;60.81;102162.78;4891163;29;20039;-81
2022/05/16 07:58:43;;;;;;;1.15;0.30;;;;;;;14.85;59.68;102166.00;4898158;29;20024;-81
2022/05/16 08:01:09;;;;;;;2.17;0.45;;;;;;;14.82;58.97;102142.84;4889947;29;20061;-81
2022/05/16 08:03:34;;;;;;;0.52;0.40;;;;;;;15.16;59.07;102161.06;4863442;29;20051;-80
2022/05/16 08:05:59;;;;;;;0.40;0.30;;;;;;;14.97;56.76;102151.75;4861197;29;20036;-80
2022/05/16 08:11:11;;;;;;;1.00;0.40;;;;;;;15.25;56.11;102169.91;4887174;29;20120;-80
2022/05/16 08:13:38;;;;;;;1.50;0.40;;;;;;;15.57;54.37;102165.75;4872560;29;20037;-81
2022/05/16 08:16:03;;;;;;;0.65;0.40;;;;;;;15.35;50.58;102166.84;4888167;29;20029;-80
2022/05/16 08:18:29;;;;;;;3.22;0.30;;;;;;;15.37;51.35;102151.22;4873521;29;20383;-80
2022/05/16 08:20:54;;;;;;;0.57;0.30;;;;;;;15.27;48.93;102162.41;4860208;29;20033;-78
2022/05/16 08:23:26;;;;;;;0.65;0.30;;;;;;;15.43;48.78;102167.56;4885851;29;20071;-80
2022/05/16 08:25:54;;;;;;;1.27;0.30;;;;;;;15.58;49.09;102166.59;4869192;29;20025;-80
2022/05/16 08:28:19;;;;;;;0.85;0.32;;;;;;;15.58;47.94;102159.28;4873278;29;20048;-80
2022/05/16 08:30:46;;;;;;;0.75;0.30;;;;;;;15.28;47.93;102158.66;4874251;29;20069;-80
2022/05/16 08:33:12;;;;;;;1.45;0.40;;;;;;;15.34;47.53;102146.19;4894657;29;20147;-81
2022/05/16 08:35:38;;;;;;;6.75;0.30;;;;;;;15.32;48.25;102162.66;4859286;29;20060;-81
2022/05/16 08:41:09;;;;;;;0.22;0.22;;;;;;;15.77;46.10;102157.78;4873482;29;20052;-80
2022/05/16 08:43:38;;;;;;;0.43;0.25;;;;;;;15.81;44.92;102150.88;4868808;29;20021;-81
2022/05/16 08:46:18;;;;;;;1.95;0.30;;;;;;;15.98;46.04;102133.22;4889318;29;20084;-80
2022/05/16 08:48:49;;;;;;;0.80;0.28;;;;;;;16.35;45.76;102155.50;4875051;29;20096;-81
2022/05/16 08:51:31;;;;;;;0.57;0.30;;;;;;;16.10;44.98;102159.81;4858074;29;20029;-81
2022/05/16 08:54:12;;;;;;;1.65;0.30;;;;;;;15.81;42.72;102166.34;4888170;29;20043;-81
2022/05/16 08:56:42;;;;;;;1.27;0.20;;;;;;;15.89;44.82;102149.88;4889407;29;20519;-80
2022/05/16 08:59:18;;;;;;;0.50;0.40;;;;;;;16.32;44.85;102157.78;4885100;29;20029;-80
2022/05/16 09:01:51;;;;;;;1.58;0.20;;;;;;;16.24;44.31;102147.94;4894013;29;20037;-80
2022/05/16 09:04:47;;;;;;;0.38;0.20;;;;;;;16.28;43.77;102138.34;4899494;29;20029;-82
2022/05/16 09:07:20;;;;;;;1.90;0.30;;;;;;;16.52;44.20;102146.97;4845998;29;20096;-81
2022/05/16 09:10:01;;;;;;;0.45;0.30;;;;;;;16.56;45.50;102153.69;4895138;29;20024;-82
2022/05/16 09:12:52;;;;;;;0.70;0.40;;;;;;;16.03;45.11;102097.34;4894177;29;20041;-81
2022/05/16 09:15:42;;;;;;;0.93;0.30;;;;;;;16.45;45.89;102144.22;4894535;29;20067;-82
2022/05/16 09:18:11;;;;;;;0.88;0.47;;;;;;;16.33;44.90;102154.88;4893679;29;20032;-82
2022/05/16 09:20:42;;;;;;;1.00;0.30;;;;;;;16.29;46.73;102150.03;4901437;29;20036;-81
2022/05/16 09:23:25;;;;;;;1.02;0.30;;;;;;;15.86;44.98;102080.56;4897703;29;20066;-83
2022/05/16 09:26:14;;;;;;;0.60;0.40;;;;;;;16.02;43.13;102140.97;4880433;29;20040;-81
2022/05/16 09:28:49;;;;;;;1.38;0.30;;;;;;;16.07;45.04;102128.47;4869697;29;20029;-82
2022/05/16 09:31:42;;;;;;;0.30;0.30;;;;;;;16.08;44.29;102148.31;4892745;29;20032;-82
2022/05/16 09:34:09;;;;;;;1.85;0.45;;;;;;;16.25;45.30;102127.88;4893996;29;20064;-81
2022/05/16 09:36:38;;;;;;;1.60;0.50;;;;;;;16.32;44.16;102149.63;4883848;29;20025;-82
2022/05/16 09:39:06;;;;;;;1.30;0.40;;;;;;;16.52;45.50;102150.50;4889855;29;20024;-81
2022/05/16 09:41:42;;;;;;;0.43;0.25;;;;;;;16.76;44.01;102148.31;4881134;29;20500;-82
2022/05/16 09:44:39;;;;;;;1.35;0.40;;;;;;;16.58;41.85;102148.84;4870431;29;20036;-80
2022/05/16 09:47:23;;;;;;;1.60;0.40;;;;;;;16.45;41.98;102138.78;4876730;29;20033;-80
2022/05/16 09:50:25;;;;;;;0.95;0.38;;;;;;;16.89;42.21;102145.59;4880333;29;20072;-81
2022/05/16 09:53:14;;;;;;;2.00;0.30;;;;;;;16.69;41.24;102140.13;4885629;29;20104;-81
2022/05/16 09:55:44;;;;;;;0.95;0.40;;;;;;;16.64;41.31;102127.13;4886605;29;20053;-80
2022/05/16 09:58:19;;;;;;;0.52;0.28;;;;;;;16.99;41.85;102139.75;4885264;29;20033;-80
2022/05/16 10:01:03;;;;;;;1.77;0.43;;;;;;;17.12;42.34;102120.72;4866437;29;20037;-82
2022/05/16 10:03:33;;;;;;;1.15;0.35;;;;;;;17.48;42.18;102152.88;4887576;29;20070;-80
2022/05/16 10:06:03;;;;;;;1.63;0.40;;;;;;;17.27;41.75;102153.94;4875844;29;20033;-81
2022/05/16 10:08:37;;;;;;;0.47;0.20;;;;;;;16.96;41.76;102121.13;4893307;29;20025;-81
2022/05/16 10:11:06;;;;;;;1.40;0.30;;;;;;;17.20;41.31;102131.34;4888874;29;20615;-81
2022/05/16 10:13:32;;;;;;;0.30;0.30;;;;;;;17.12;42.39;102161.50;4874312;29;20025;-81
2022/05/16 10:16:00;;;;;;;2.03;0.40;;;;;;;17.17;42.08;102152.72;4858680;29;20045;-82
2022/05/16 10:18:28;;;;;;;0.68;0.28;;;;;;;16.89;41.55;102119.25;4886034;29;20447;-81
2022/05/16 10:21:03;;;;;;;1.17;0.47;;;;;;;16.93;39.99;102132.44;4879550;29;20520;-80
2022/05/16 10:23:33;;;;;;;1.40;0.65;;;;;;;16.91;41.64;102151.66;4880014;29;20109;-81
2022/05/16 10:26:04;;;;;;;2.55;0.30;;;;;;;17.00;39.91;102144.13;4871289;29;20353;-80
2022/05/16 10:28:37;;;;;;;0.40;0.35;;;;;;;17.12;39.18;102148.75;4885732;29;20017;-81
2022/05/16 10:34:01;;;;;;;0.90;0.20;;;;;;;17.27;40.20;102147.69;4885636;29;20048;-81
2022/05/16 10:36:31;;;;;;;3.00;0.88;;;;;;;17.43;40.72;102121.91;4868543;29;20066;-80
2022/05/16 10:39:07;;;;;;;0.50;0.40;;;;;;;17.48;40.31;102150.16;4866629;29;20033;-81
2022/05/16 10:41:40;;;;;;;0.73;0.50;;;;;;;17.46;41.45;102143.25;4885783;29;20349;-81
2022/05/16 10:44:10;;;;;;;0.50;0.40;;;;;;;17.49;41.45;102143.66;4880203;29;20032;-80
2022/05/16 10:46:42;;;;;;;1.33;0.40;;;;;;;17.47;40.37;102129.44;4879747;29;20522;-79
2022/05/16 10:49:16;;;;;;;1.00;0.30;;;;;;;17.60;40.25;102123.94;4872800;29;20021;-79
2022/05/16 10:52:04;;;;;;;1.10;0.40;;;;;;;17.84;39.56;102143.38;4868750;29;20112;-81
2022/05/16 10:54:30;;;;;;;2.35;0.30;;;;;;;17.71;39.33;102133.34;4879611;29;20032;-80
2022/05/16 10:57:04;;;;;;;1.00;0.35;;;;;;;17.83;39.34;102144.44;4850477;29;20359;-80
2022/05/16 11:00:00;;;;;;;1.15;0.40;;;;;;;17.73;38.61;102125.81;4879941;29;20033;-78
2022/05/16 11:02:56;;;;;;;0.85;0.30;;;;;;;17.59;38.81;102113.28;4879919;29;20037;-80
2022/05/16 11:05:31;;;;;;;0.60;0.40;;;;;;;17.77;39.40;102128.97;4880719;29;20072;-79
2022/05/16 11:08:18;;;;;;;1.58;1.20;;;;;;;17.53;39.63;102087.75;4876658;29;20025;-79
2022/05/16 11:10:59;;;;;;;1.70;0.40;;;;;;;17.56;39.38;102125.44;4876374;29;20025;-79
2022/05/16 11:13:50;;;;;;;1.42;0.35;;;;;;;17.61;39.50;102103.00;4886222;29;20032;-80
2022/05/16 11:16:18;;;;;;;0.50;0.30;;;;;;;17.12;40.19;102099.78;4883446;29;20033;-80
2022/05/16 11:19:02;;;;;;;3.15;0.50;;;;;;;17.32;40.62;102116.06;4889190;29;20690;-80
2022/05/16 11:21:57;;;;;;;1.50;0.40;;;;;;;17.43;40.72;102120.03;4888163;29;20033;-79
2022/05/16 11:24:36;;;;;;;1.55;0.47;;;;;;;17.32;41.05;102113.34;4865868;29;20480;-79
2022/05/16 11:27:10;;;;;;;3.70;0.40;;;;;;;17.46;41.13;102125.03;4879301;29;20029;-79
2022/05/16 11:29:46;;;;;;;1.00;0.52;;;;;;;17.44;41.08;102083.59;4865297;29;20021;-80
2022/05/16 11:32:12;;;;;;;0.77;0.40;;;;;;;17.58;40.99;102117.03;4878314;29;20037;-79
2022/05/16 11:35:03;;;;;;;1.42;0.60;;;;;;;17.59;41.41;102097.78;4882589;29;20460;-80
2022/05/16 11:37:56;;;;;;;3.28;1.70;;;;;;;17.51;41.07;102072.69;4874990;29;20169;-80
2022/05/16 11:40:24;;;;;;;4.07;3.40;;;;;;;17.85;41.08;102112.41;4888750;29;20028;-80
2022/05/16 11:43:21;;;;;;;2.53;0.60;;;;;;;18.06;39.73;102105.81;4886046;29;20024;-79
2022/05/16 11:46:16;;;;;;;0.68;0.30;;;;;;;17.84;40.16;102102.53;4864547;29;20108;-80
2022/05/16 11:49:03;;;;;;;0.95;0.40;;;;;;;18.01;39.84;102108.31;4882604;29;20021;-80
2022/05/16 11:51:43;;;;;;;4.43;0.50;;;;;;;18.15;40.41;102099.06;4875680;29;20029;-80
2022/05/16 11:54:13;;;;;;;3.30;3.00;;;;;;;17.75;40.59;102047.47;4903193;29;20382;-79
2022/05/16 12:02:18;;;;;;;4.35;2.38;;;;;;;18.41;39.67;102105.38;4887337;29;20065;-80
2022/05/16 12:05:07;;;;;;;5.45;4.90;;;;;;;18.35;39.50;102106.28;4896334;29;20060;-81